sensor_id;sensor_type;location;lat;lon;timestamp;temperature;humidity
49238;DHT22;35069;47.906;1.892;2022-12-29T00:01:23;12.10;99.90
49238;DHT22;35069;47.906;1.892;2022-12-29T00:03:48;12.00;99.90
49238;DHT22;35069;47.906;1.892;2022-12-29T00:06:14;12.00;99.90
49238;DHT22;35069;47.906;1.892;2022-12-29T00:08:40;12.00;99.90
49238;DHT22;35069;47.906;1.892;2022-12-29T00:11:17;12.00;99.90
49238;DHT22;35069;47.906;1.892;2022-12-29T00:13:43;12.00;99.90
49238;DHT22;35069;47.906;1.892;2022-12-29T00:16:28;12.00;99.90
49238;DHT22;35069;47.906;1.892;2022-12-29T00:18:54;12.00;99.90
49238;DHT22;35069;47.906;1.892;2022-12-29T00:21:22;12.00;99.90
49238;DHT22;35069;47.906;1.892;2022-12-29T00:24:18;12.00;99.90
49238;DHT22;35069;47.906;1.892;2022-12-29T00:29:42;12.10;99.90
49238;DHT22;35069;47.906;1.892;2022-12-29T00:32:26;12.10;99.90
49238;DHT22;35069;47.906;1.892;2022-12-29T00:35:18;12.10;99.90
49238;DHT22;35069;47.906;1.892;2022-12-29T00:37:47;12.20;99.90
49238;DHT22;35069;47.906;1.892;2022-12-29T00:40:32;12.20;99.90
49238;DHT22;35069;47.906;1.892;2022-12-29T00:43:16;12.20;99.90
49238;DHT22;35069;47.906;1.892;2022-12-29T00:46:00;12.20;99.90
49238;DHT22;35069;47.906;1.892;2022-12-29T00:48:26;12.20;99.90
49238;DHT22;35069;47.906;1.892;2022-12-29T00:51:10;12.20;99.90
49238;DHT22;35069;47.906;1.892;2022-12-29T00:53:35;12.20;99.90
49238;DHT22;35069;47.906;1.892;2022-12-29T00:56:01;12.20;99.90
49238;DHT22;35069;47.906;1.892;2022-12-29T00:58:28;12.20;99.90
49238;DHT22;35069;47.906;1.892;2022-12-29T01:01:04;12.30;99.90
49238;DHT22;35069;47.906;1.892;2022-12-29T01:03:30;12.30;99.90
49238;DHT22;35069;47.906;1.892;2022-12-29T01:05:56;12.30;99.90
49238;DHT22;35069;47.906;1.892;2022-12-29T01:08:21;12.30;99.90
49238;DHT22;35069;47.906;1.892;2022-12-29T01:10:58;12.30;99.90
49238;DHT22;35069;47.906;1.892;2022-12-29T01:13:23;12.30;99.90
49238;DHT22;35069;47.906;1.892;2022-12-29T01:15:50;12.30;99.90
49238;DHT22;35069;47.906;1.892;2022-12-29T01:18:16;12.30;99.90
49238;DHT22;35069;47.906;1.892;2022-12-29T01:20:41;12.30;99.90
49238;DHT22;35069;47.906;1.892;2022-12-29T01:23:07;12.30;99.90
49238;DHT22;35069;47.906;1.892;2022-12-29T01:25:33;12.30;99.90
49238;DHT22;35069;47.906;1.892;2022-12-29T01:27:58;12.30;99.90
49238;DHT22;35069;47.906;1.892;2022-12-29T01:30:24;12.30;99.90
49238;DHT22;35069;47.906;1.892;2022-12-29T01:32:49;12.30;99.90
49238;DHT22;35069;47.906;1.892;2022-12-29T01:35:15;12.30;99.90
49238;DHT22;35069;47.906;1.892;2022-12-29T01:37:41;12.20;99.90
49238;DHT22;35069;47.906;1.892;2022-12-29T01:40:07;12.20;99.90
49238;DHT22;35069;47.906;1.892;2022-12-29T01:42:32;12.10;99.90
49238;DHT22;35069;47.906;1.892;2022-12-29T01:45:02;12.10;99.90
49238;DHT22;35069;47.906;1.892;2022-12-29T01:50:09;12.10;99.90
49238;DHT22;35069;47.906;1.892;2022-12-29T01:52:40;12.00;99.90
49238;DHT22;35069;47.906;1.892;2022-12-29T01:55:07;12.00;99.90
49238;DHT22;35069;47.906;1.892;2022-12-29T01:57:37;12.00;99.90
49238;DHT22;35069;47.906;1.892;2022-12-29T02:00:07;11.90;99.90
49238;DHT22;35069;47.906;1.892;2022-12-29T02:02:34;11.90;99.90
49238;DHT22;35069;47.906;1.892;2022-12-29T02:05:07;11.90;99.90
49238;DHT22;35069;47.906;1.892;2022-12-29T02:07:34;11.80;99.90
49238;DHT22;35069;47.906;1.892;2022-12-29T02:10:01;11.80;99.90
49238;DHT22;35069;47.906;1.892;2022-12-29T02:12:27;11.80;99.90
49238;DHT22;35069;47.906;1.892;2022-12-29T02:14:59;11.80;99.90
49238;DHT22;35069;47.906;1.892;2022-12-29T02:17:33;11.80;99.90
49238;DHT22;35069;47.906;1.892;2022-12-29T02:26:44;11.70;99.90
49238;DHT22;35069;47.906;1.892;2022-12-29T02:37:17;11.70;99.90
49238;DHT22;35069;47.906;1.892;2022-12-29T02:39:57;11.60;99.90
49238;DHT22;35069;47.906;1.892;2022-12-29T02:45:34;11.60;99.90
49238;DHT22;35069;47.906;1.892;2022-12-29T02:50:39;11.60;99.90
49238;DHT22;35069;47.906;1.892;2022-12-29T02:53:09;11.70;99.90
49238;DHT22;35069;47.906;1.892;2022-12-29T02:55:36;11.70;99.90
49238;DHT22;35069;47.906;1.892;2022-12-29T02:58:22;11.70;99.90
49238;DHT22;35069;47.906;1.892;2022-12-29T03:01:00;11.60;99.90
49238;DHT22;35069;47.906;1.892;2022-12-29T03:09:39;11.60;99.90
49238;DHT22;35069;47.906;1.892;2022-12-29T03:12:31;11.60;99.90
49238;DHT22;35069;47.906;1.892;2022-12-29T03:15:28;11.60;99.90
49238;DHT22;35069;47.906;1.892;2022-12-29T03:18:30;11.70;99.90
49238;DHT22;35069;47.906;1.892;2022-12-29T03:21:13;11.70;99.90
49238;DHT22;35069;47.906;1.892;2022-12-29T03:23:43;11.70;99.90
49238;DHT22;35069;47.906;1.892;2022-12-29T03:26:14;11.70;99.90
49238;DHT22;35069;47.906;1.892;2022-12-29T03:28:46;11.70;99.90
49238;DHT22;35069;47.906;1.892;2022-12-29T03:31:13;11.70;99.90
49238;DHT22;35069;47.906;1.892;2022-12-29T03:33:41;11.70;99.90
49238;DHT22;35069;47.906;1.892;2022-12-29T03:36:11;11.70;99.90
49238;DHT22;35069;47.906;1.892;2022-12-29T03:38:50;11.70;99.90
49238;DHT22;35069;47.906;1.892;2022-12-29T03:41:24;11.60;99.90
49238;DHT22;35069;47.906;1.892;2022-12-29T03:43:51;11.70;99.90
49238;DHT22;35069;47.906;1.892;2022-12-29T03:46:16;11.70;99.90
49238;DHT22;35069;47.906;1.892;2022-12-29T03:48:42;11.70;99.90
49238;DHT22;35069;47.906;1.892;2022-12-29T03:51:07;11.70;99.90
49238;DHT22;35069;47.906;1.892;2022-12-29T03:53:33;11.70;99.90
49238;DHT22;35069;47.906;1.892;2022-12-29T03:55:59;11.60;99.90
49238;DHT22;35069;47.906;1.892;2022-12-29T03:58:24;11.60;99.90
49238;DHT22;35069;47.906;1.892;2022-12-29T04:00:50;11.60;99.90
49238;DHT22;35069;47.906;1.892;2022-12-29T04:03:15;11.60;99.90
49238;DHT22;35069;47.906;1.892;2022-12-29T04:05:41;11.60;99.90
49238;DHT22;35069;47.906;1.892;2022-12-29T04:08:06;11.60;99.90
49238;DHT22;35069;47.906;1.892;2022-12-29T04:10:32;11.60;99.90
49238;DHT22;35069;47.906;1.892;2022-12-29T04:12:57;11.60;99.90
49238;DHT22;35069;47.906;1.892;2022-12-29T04:15:23;11.60;99.90
49238;DHT22;35069;47.906;1.892;2022-12-29T04:17:49;11.60;99.90
49238;DHT22;35069;47.906;1.892;2022-12-29T04:20:15;11.60;99.90
49238;DHT22;35069;47.906;1.892;2022-12-29T04:23:03;11.60;99.90
49238;DHT22;35069;47.906;1.892;2022-12-29T04:25:33;11.60;99.90
49238;DHT22;35069;47.906;1.892;2022-12-29T04:27:59;11.60;99.90
49238;DHT22;35069;47.906;1.892;2022-12-29T04:30:24;11.60;99.90
49238;DHT22;35069;47.906;1.892;2022-12-29T04:32:50;11.60;99.90
49238;DHT22;35069;47.906;1.892;2022-12-29T04:35:16;11.60;99.90
49238;DHT22;35069;47.906;1.892;2022-12-29T04:37:41;11.60;99.90
49238;DHT22;35069;47.906;1.892;2022-12-29T04:40:08;11.60;99.90
49238;DHT22;35069;47.906;1.892;2022-12-29T04:42:33;11.60;99.90
49238;DHT22;35069;47.906;1.892;2022-12-29T04:44:59;11.60;99.90
49238;DHT22;35069;47.906;1.892;2022-12-29T04:47:25;11.60;99.90
49238;DHT22;35069;47.906;1.892;2022-12-29T04:49:50;11.60;99.90
49238;DHT22;35069;47.906;1.892;2022-12-29T04:52:16;11.60;99.90
49238;DHT22;35069;47.906;1.892;2022-12-29T04:54:41;11.60;99.90
49238;DHT22;35069;47.906;1.892;2022-12-29T04:57:07;11.60;99.90
49238;DHT22;35069;47.906;1.892;2022-12-29T04:59:32;11.50;99.90
49238;DHT22;35069;47.906;1.892;2022-12-29T05:01:58;11.50;99.90
49238;DHT22;35069;47.906;1.892;2022-12-29T05:04:24;11.50;99.90
49238;DHT22;35069;47.906;1.892;2022-12-29T05:06:49;11.40;99.90
49238;DHT22;35069;47.906;1.892;2022-12-29T05:09:15;11.40;99.90
49238;DHT22;35069;47.906;1.892;2022-12-29T05:11:40;11.30;99.90
49238;DHT22;35069;47.906;1.892;2022-12-29T05:14:06;11.30;99.90
49238;DHT22;35069;47.906;1.892;2022-12-29T05:16:32;11.20;99.90
49238;DHT22;35069;47.906;1.892;2022-12-29T05:18:57;11.20;99.90
49238;DHT22;35069;47.906;1.892;2022-12-29T05:21:23;11.20;99.90
49238;DHT22;35069;47.906;1.892;2022-12-29T05:23:49;11.20;99.90
49238;DHT22;35069;47.906;1.892;2022-12-29T05:26:14;11.20;99.90
49238;DHT22;35069;47.906;1.892;2022-12-29T05:28:40;11.10;99.90
49238;DHT22;35069;47.906;1.892;2022-12-29T05:31:05;11.10;99.90
49238;DHT22;35069;47.906;1.892;2022-12-29T05:33:31;11.10;99.90
49238;DHT22;35069;47.906;1.892;2022-12-29T05:35:56;11.10;99.90
49238;DHT22;35069;47.906;1.892;2022-12-29T05:38:22;11.10;99.90
49238;DHT22;35069;47.906;1.892;2022-12-29T05:40:48;11.10;99.90
49238;DHT22;35069;47.906;1.892;2022-12-29T05:43:14;11.10;99.90
49238;DHT22;35069;47.906;1.892;2022-12-29T05:45:39;11.10;99.90
49238;DHT22;35069;47.906;1.892;2022-12-29T05:48:05;11.00;99.90
49238;DHT22;35069;47.906;1.892;2022-12-29T05:50:30;11.00;99.90
49238;DHT22;35069;47.906;1.892;2022-12-29T05:52:56;11.00;99.90
49238;DHT22;35069;47.906;1.892;2022-12-29T05:55:21;11.00;99.90
49238;DHT22;35069;47.906;1.892;2022-12-29T05:57:47;11.00;99.90
49238;DHT22;35069;47.906;1.892;2022-12-29T06:00:13;11.00;99.90
49238;DHT22;35069;47.906;1.892;2022-12-29T06:02:39;11.00;99.90
49238;DHT22;35069;47.906;1.892;2022-12-29T06:05:05;11.00;99.90
49238;DHT22;35069;47.906;1.892;2022-12-29T06:07:31;11.10;99.90
49238;DHT22;35069;47.906;1.892;2022-12-29T06:09:56;11.10;99.90
49238;DHT22;35069;47.906;1.892;2022-12-29T06:12:22;11.20;99.90
49238;DHT22;35069;47.906;1.892;2022-12-29T06:14:47;11.20;99.90
49238;DHT22;35069;47.906;1.892;2022-12-29T06:17:13;11.30;99.90
49238;DHT22;35069;47.906;1.892;2022-12-29T06:19:38;11.30;99.90
49238;DHT22;35069;47.906;1.892;2022-12-29T06:22:04;11.30;99.90
49238;DHT22;35069;47.906;1.892;2022-12-29T06:24:30;11.30;99.90
49238;DHT22;35069;47.906;1.892;2022-12-29T06:26:55;11.40;99.90
49238;DHT22;35069;47.906;1.892;2022-12-29T06:29:21;11.30;99.90
49238;DHT22;35069;47.906;1.892;2022-12-29T06:31:47;11.40;99.90
49238;DHT22;35069;47.906;1.892;2022-12-29T06:34:14;11.40;99.90
49238;DHT22;35069;47.906;1.892;2022-12-29T06:36:39;11.40;99.90
49238;DHT22;35069;47.906;1.892;2022-12-29T06:39:05;11.40;99.90
49238;DHT22;35069;47.906;1.892;2022-12-29T06:41:31;11.40;99.90
49238;DHT22;35069;47.906;1.892;2022-12-29T06:43:57;11.40;99.90
49238;DHT22;35069;47.906;1.892;2022-12-29T06:46:22;11.40;99.90
49238;DHT22;35069;47.906;1.892;2022-12-29T06:48:48;11.40;99.90
49238;DHT22;35069;47.906;1.892;2022-12-29T06:51:13;11.40;99.90
49238;DHT22;35069;47.906;1.892;2022-12-29T06:53:39;11.50;99.90
49238;DHT22;35069;47.906;1.892;2022-12-29T06:56:05;11.40;99.90
49238;DHT22;35069;47.906;1.892;2022-12-29T06:58:30;11.50;99.90
49238;DHT22;35069;47.906;1.892;2022-12-29T07:00:56;11.40;99.90
49238;DHT22;35069;47.906;1.892;2022-12-29T07:03:21;11.30;99.90
49238;DHT22;35069;47.906;1.892;2022-12-29T07:05:47;11.00;99.90
49238;DHT22;35069;47.906;1.892;2022-12-29T07:08:13;10.90;99.90
49238;DHT22;35069;47.906;1.892;2022-12-29T07:10:39;10.70;99.90
49238;DHT22;35069;47.906;1.892;2022-12-29T07:13:05;10.60;99.90
49238;DHT22;35069;47.906;1.892;2022-12-29T07:15:33;10.50;99.90
49238;DHT22;35069;47.906;1.892;2022-12-29T07:17:59;10.40;99.90
49238;DHT22;35069;47.906;1.892;2022-12-29T07:20:24;10.30;99.90
49238;DHT22;35069;47.906;1.892;2022-12-29T07:22:50;10.30;99.90
49238;DHT22;35069;47.906;1.892;2022-12-29T07:25:16;10.40;99.90
49238;DHT22;35069;47.906;1.892;2022-12-29T07:27:41;10.30;99.90
49238;DHT22;35069;47.906;1.892;2022-12-29T07:30:07;10.40;99.90
49238;DHT22;35069;47.906;1.892;2022-12-29T07:32:33;10.40;99.90
49238;DHT22;35069;47.906;1.892;2022-12-29T07:34:59;10.40;99.90
49238;DHT22;35069;47.906;1.892;2022-12-29T07:37:25;10.50;99.90
49238;DHT22;35069;47.906;1.892;2022-12-29T07:39:50;10.50;99.90
49238;DHT22;35069;47.906;1.892;2022-12-29T07:42:16;10.60;99.90
49238;DHT22;35069;47.906;1.892;2022-12-29T07:44:41;10.60;99.90
49238;DHT22;35069;47.906;1.892;2022-12-29T07:47:07;10.70;99.90
49238;DHT22;35069;47.906;1.892;2022-12-29T07:49:33;10.70;99.90
49238;DHT22;35069;47.906;1.892;2022-12-29T07:51:59;10.70;99.90
49238;DHT22;35069;47.906;1.892;2022-12-29T07:54:24;10.70;99.90
49238;DHT22;35069;47.906;1.892;2022-12-29T07:56:50;10.80;99.90
49238;DHT22;35069;47.906;1.892;2022-12-29T07:59:15;10.80;99.90
49238;DHT22;35069;47.906;1.892;2022-12-29T08:01:41;10.80;99.90
49238;DHT22;35069;47.906;1.892;2022-12-29T08:04:07;10.80;99.90
49238;DHT22;35069;47.906;1.892;2022-12-29T08:06:32;10.80;99.90
49238;DHT22;35069;47.906;1.892;2022-12-29T08:08:58;10.90;99.90
49238;DHT22;35069;47.906;1.892;2022-12-29T08:11:25;10.80;99.90
49238;DHT22;35069;47.906;1.892;2022-12-29T08:13:51;10.90;99.90
49238;DHT22;35069;47.906;1.892;2022-12-29T08:16:16;10.90;99.90
49238;DHT22;35069;47.906;1.892;2022-12-29T08:18:42;10.90;99.90
49238;DHT22;35069;47.906;1.892;2022-12-29T08:21:08;10.90;99.90
49238;DHT22;35069;47.906;1.892;2022-12-29T08:23:33;11.00;99.90
49238;DHT22;35069;47.906;1.892;2022-12-29T08:26:00;11.10;99.90
49238;DHT22;35069;47.906;1.892;2022-12-29T08:28:27;11.20;99.90
49238;DHT22;35069;47.906;1.892;2022-12-29T08:30:53;11.20;99.90
49238;DHT22;35069;47.906;1.892;2022-12-29T08:33:18;11.20;99.90
49238;DHT22;35069;47.906;1.892;2022-12-29T08:35:44;11.20;99.90
49238;DHT22;35069;47.906;1.892;2022-12-29T08:38:10;11.30;99.90
49238;DHT22;35069;47.906;1.892;2022-12-29T08:40:37;11.20;99.90
49238;DHT22;35069;47.906;1.892;2022-12-29T08:43:02;11.20;99.90
49238;DHT22;35069;47.906;1.892;2022-12-29T08:45:28;11.20;99.90
49238;DHT22;35069;47.906;1.892;2022-12-29T08:47:53;11.20;99.90
49238;DHT22;35069;47.906;1.892;2022-12-29T08:50:19;11.30;99.90
49238;DHT22;35069;47.906;1.892;2022-12-29T08:52:45;11.30;99.90
49238;DHT22;35069;47.906;1.892;2022-12-29T08:55:11;11.30;99.90
49238;DHT22;35069;47.906;1.892;2022-12-29T08:57:36;11.30;99.90
49238;DHT22;35069;47.906;1.892;2022-12-29T09:00:03;11.30;99.90
49238;DHT22;35069;47.906;1.892;2022-12-29T09:02:29;11.30;99.90
49238;DHT22;35069;47.906;1.892;2022-12-29T09:04:55;11.30;99.90
49238;DHT22;35069;47.906;1.892;2022-12-29T09:07:23;11.30;99.90
49238;DHT22;35069;47.906;1.892;2022-12-29T09:09:48;11.30;99.90
49238;DHT22;35069;47.906;1.892;2022-12-29T09:12:15;11.30;99.90
49238;DHT22;35069;47.906;1.892;2022-12-29T09:14:41;11.30;99.90
49238;DHT22;35069;47.906;1.892;2022-12-29T09:17:08;11.40;99.90
49238;DHT22;35069;47.906;1.892;2022-12-29T09:19:52;11.40;99.90
49238;DHT22;35069;47.906;1.892;2022-12-29T09:22:18;11.40;99.90
49238;DHT22;35069;47.906;1.892;2022-12-29T09:24:43;11.50;99.90
49238;DHT22;35069;47.906;1.892;2022-12-29T09:27:09;11.50;99.90
49238;DHT22;35069;47.906;1.892;2022-12-29T09:29:35;11.50;99.90
49238;DHT22;35069;47.906;1.892;2022-12-29T09:32:00;11.60;99.90
49238;DHT22;35069;47.906;1.892;2022-12-29T09:34:26;11.70;99.90
49238;DHT22;35069;47.906;1.892;2022-12-29T09:36:51;11.70;99.90
49238;DHT22;35069;47.906;1.892;2022-12-29T09:39:17;11.80;99.90
49238;DHT22;35069;47.906;1.892;2022-12-29T09:42:12;11.80;99.90
49238;DHT22;35069;47.906;1.892;2022-12-29T09:47:25;11.80;99.90
49238;DHT22;35069;47.906;1.892;2022-12-29T09:50:01;11.90;99.90
49238;DHT22;35069;47.906;1.892;2022-12-29T09:52:43;12.00;99.90
49238;DHT22;35069;47.906;1.892;2022-12-29T09:55:21;12.10;99.90
49238;DHT22;35069;47.906;1.892;2022-12-29T09:57:57;12.10;99.90
49238;DHT22;35069;47.906;1.892;2022-12-29T10:03:51;12.10;99.90
49238;DHT22;35069;47.906;1.892;2022-12-29T10:06:39;12.10;99.90
49238;DHT22;35069;47.906;1.892;2022-12-29T10:09:29;12.20;99.90
49238;DHT22;35069;47.906;1.892;2022-12-29T10:15:46;12.50;99.90
49238;DHT22;35069;47.906;1.892;2022-12-29T10:18:27;12.50;99.90
49238;DHT22;35069;47.906;1.892;2022-12-29T10:23:52;12.50;99.90
49238;DHT22;35069;47.906;1.892;2022-12-29T10:26:24;12.50;99.90
49238;DHT22;35069;47.906;1.892;2022-12-29T10:28:59;12.50;99.90
49238;DHT22;35069;47.906;1.892;2022-12-29T10:32:00;12.60;99.90
49238;DHT22;35069;47.906;1.892;2022-12-29T10:34:37;12.60;99.90
49238;DHT22;35069;47.906;1.892;2022-12-29T10:39:37;13.20;99.90
49238;DHT22;35069;47.906;1.892;2022-12-29T10:44:39;13.40;99.90
49238;DHT22;35069;47.906;1.892;2022-12-29T10:47:23;13.50;99.90
49238;DHT22;35069;47.906;1.892;2022-12-29T10:49:50;13.50;99.90
49238;DHT22;35069;47.906;1.892;2022-12-29T10:52:17;13.40;99.90
49238;DHT22;35069;47.906;1.892;2022-12-29T10:54:53;13.30;99.90
49238;DHT22;35069;47.906;1.892;2022-12-29T10:57:27;13.20;99.90
49238;DHT22;35069;47.906;1.892;2022-12-29T10:59:54;13.30;99.90
49238;DHT22;35069;47.906;1.892;2022-12-29T11:05:15;13.30;99.90
49238;DHT22;35069;47.906;1.892;2022-12-29T11:07:41;13.40;99.90
49238;DHT22;35069;47.906;1.892;2022-12-29T11:10:20;13.40;99.90
49238;DHT22;35069;47.906;1.892;2022-12-29T11:13:01;13.50;99.90
49238;DHT22;35069;47.906;1.892;2022-12-29T11:15:26;13.70;99.90
49238;DHT22;35069;47.906;1.892;2022-12-29T11:17:56;13.90;99.90
49238;DHT22;35069;47.906;1.892;2022-12-29T11:20:34;14.20;99.90
49238;DHT22;35069;47.906;1.892;2022-12-29T11:23:00;14.50;99.90
49238;DHT22;35069;47.906;1.892;2022-12-29T11:25:27;14.80;99.90
49238;DHT22;35069;47.906;1.892;2022-12-29T11:28:00;15.10;99.90
49238;DHT22;35069;47.906;1.892;2022-12-29T11:30:29;15.20;99.90
49238;DHT22;35069;47.906;1.892;2022-12-29T11:32:56;15.20;99.90
49238;DHT22;35069;47.906;1.892;2022-12-29T11:35:42;15.00;99.90
49238;DHT22;35069;47.906;1.892;2022-12-29T11:38:42;14.80;99.90
49238;DHT22;35069;47.906;1.892;2022-12-29T11:41:13;14.80;99.90
49238;DHT22;35069;47.906;1.892;2022-12-29T11:43:43;14.50;99.90
49238;DHT22;35069;47.906;1.892;2022-12-29T11:46:28;14.30;99.90
49238;DHT22;35069;47.906;1.892;2022-12-29T11:48:54;14.20;99.90
49238;DHT22;35069;47.906;1.892;2022-12-29T11:51:26;14.10;99.90
49238;DHT22;35069;47.906;1.892;2022-12-29T11:53:56;14.00;99.90
49238;DHT22;35069;47.906;1.892;2022-12-29T11:56:37;14.10;99.90
49238;DHT22;35069;47.906;1.892;2022-12-29T12:02:02;14.70;99.90
49238;DHT22;35069;47.906;1.892;2022-12-29T12:04:35;14.50;99.90
49238;DHT22;35069;47.906;1.892;2022-12-29T12:07:12;14.20;99.90
49238;DHT22;35069;47.906;1.892;2022-12-29T12:10:04;14.00;99.90
49238;DHT22;35069;47.906;1.892;2022-12-29T12:12:37;13.70;99.90
49238;DHT22;35069;47.906;1.892;2022-12-29T12:15:03;13.50;99.90
49238;DHT22;35069;47.906;1.892;2022-12-29T12:17:40;13.30;99.90
49238;DHT22;35069;47.906;1.892;2022-12-29T12:20:42;13.20;99.90
49238;DHT22;35069;47.906;1.892;2022-12-29T12:28:52;13.10;99.90
49238;DHT22;35069;47.906;1.892;2022-12-29T12:34:16;13.10;99.90
49238;DHT22;35069;47.906;1.892;2022-12-29T12:45:42;13.00;99.90
49238;DHT22;35069;47.906;1.892;2022-12-29T12:59:07;13.10;99.90
49238;DHT22;35069;47.906;1.892;2022-12-29T13:02:01;13.00;99.90
49238;DHT22;35069;47.906;1.892;2022-12-29T13:10:35;13.20;99.90
49238;DHT22;35069;47.906;1.892;2022-12-29T13:19:04;13.50;99.90
49238;DHT22;35069;47.906;1.892;2022-12-29T13:27:25;13.40;99.90
49238;DHT22;35069;47.906;1.892;2022-12-29T13:30:03;13.50;99.90
49238;DHT22;35069;47.906;1.892;2022-12-29T13:32:52;13.60;99.90
49238;DHT22;35069;47.906;1.892;2022-12-29T13:38:18;13.60;99.90
49238;DHT22;35069;47.906;1.892;2022-12-29T13:40:50;13.50;99.90
49238;DHT22;35069;47.906;1.892;2022-12-29T13:43:18;13.40;99.90
49238;DHT22;35069;47.906;1.892;2022-12-29T13:45:45;13.30;99.90
49238;DHT22;35069;47.906;1.892;2022-12-29T13:48:23;13.20;99.90
49238;DHT22;35069;47.906;1.892;2022-12-29T13:50:57;13.00;99.90
49238;DHT22;35069;47.906;1.892;2022-12-29T13:53:37;12.80;99.90
49238;DHT22;35069;47.906;1.892;2022-12-29T13:56:33;12.70;99.90
49238;DHT22;35069;47.906;1.892;2022-12-29T13:59:12;12.70;99.90
49238;DHT22;35069;47.906;1.892;2022-12-29T14:04:20;12.60;99.90
49238;DHT22;35069;47.906;1.892;2022-12-29T14:07:12;12.60;99.90
49238;DHT22;35069;47.906;1.892;2022-12-29T14:09:42;12.50;99.90
49238;DHT22;35069;47.906;1.892;2022-12-29T14:17:39;12.40;99.90
49238;DHT22;35069;47.906;1.892;2022-12-29T14:20:20;12.30;99.90
49238;DHT22;35069;47.906;1.892;2022-12-29T14:23:38;12.30;99.90
49238;DHT22;35069;47.906;1.892;2022-12-29T14:28:35;12.50;99.90
49238;DHT22;35069;47.906;1.892;2022-12-29T14:36:37;12.50;99.90
49238;DHT22;35069;47.906;1.892;2022-12-29T14:39:04;12.50;99.90
49238;DHT22;35069;47.906;1.892;2022-12-29T14:41:59;12.60;99.90
49238;DHT22;35069;47.906;1.892;2022-12-29T14:44:25;12.60;99.90
49238;DHT22;35069;47.906;1.892;2022-12-29T14:49:25;12.40;99.90
49238;DHT22;35069;47.906;1.892;2022-12-29T14:51:55;12.40;99.90
49238;DHT22;35069;47.906;1.892;2022-12-29T14:57:06;12.30;99.90
49238;DHT22;35069;47.906;1.892;2022-12-29T14:59:34;12.20;99.90
49238;DHT22;35069;47.906;1.892;2022-12-29T15:02:03;12.10;99.90
49238;DHT22;35069;47.906;1.892;2022-12-29T15:04:34;12.00;99.90
49238;DHT22;35069;47.906;1.892;2022-12-29T15:07:01;12.00;99.90
49238;DHT22;35069;47.906;1.892;2022-12-29T15:09:37;12.00;99.90
49238;DHT22;35069;47.906;1.892;2022-12-29T15:14:54;11.90;99.90
49238;DHT22;35069;47.906;1.892;2022-12-29T15:17:28;11.80;99.90
49238;DHT22;35069;47.906;1.892;2022-12-29T15:19:56;11.70;99.90
49238;DHT22;35069;47.906;1.892;2022-12-29T15:22:22;11.70;99.90
49238;DHT22;35069;47.906;1.892;2022-12-29T15:24:54;11.70;99.90
49238;DHT22;35069;47.906;1.892;2022-12-29T15:27:23;11.70;99.90
49238;DHT22;35069;47.906;1.892;2022-12-29T15:29:56;11.70;99.90
49238;DHT22;35069;47.906;1.892;2022-12-29T15:32:25;11.70;99.90
49238;DHT22;35069;47.906;1.892;2022-12-29T15:34:53;11.60;99.90
49238;DHT22;35069;47.906;1.892;2022-12-29T15:39:48;11.50;99.90
49238;DHT22;35069;47.906;1.892;2022-12-29T15:42:27;11.50;99.90
49238;DHT22;35069;47.906;1.892;2022-12-29T15:44:55;11.40;99.90
49238;DHT22;35069;47.906;1.892;2022-12-29T15:47:25;11.40;99.90
49238;DHT22;35069;47.906;1.892;2022-12-29T15:50:21;11.40;99.90
49238;DHT22;35069;47.906;1.892;2022-12-29T15:52:43;11.40;99.90
49238;DHT22;35069;47.906;1.892;2022-12-29T15:57:46;11.30;99.90
49238;DHT22;35069;47.906;1.892;2022-12-29T16:00:27;11.30;99.90
49238;DHT22;35069;47.906;1.892;2022-12-29T16:02:54;11.30;99.90
49238;DHT22;35069;47.906;1.892;2022-12-29T16:05:20;11.30;99.90
49238;DHT22;35069;47.906;1.892;2022-12-29T16:07:58;11.20;99.90
49238;DHT22;35069;47.906;1.892;2022-12-29T16:10:39;11.20;99.90
49238;DHT22;35069;47.906;1.892;2022-12-29T16:13:26;11.10;99.90
49238;DHT22;35069;47.906;1.892;2022-12-29T16:15:58;11.10;99.90
49238;DHT22;35069;47.906;1.892;2022-12-29T16:18:29;11.10;99.90
49238;DHT22;35069;47.906;1.892;2022-12-29T16:20:56;11.10;99.90
49238;DHT22;35069;47.906;1.892;2022-12-29T16:23:27;11.00;99.90
49238;DHT22;35069;47.906;1.892;2022-12-29T16:25:55;11.00;99.90
49238;DHT22;35069;47.906;1.892;2022-12-29T16:28:35;10.90;99.90
49238;DHT22;35069;47.906;1.892;2022-12-29T16:31:06;10.90;99.90
49238;DHT22;35069;47.906;1.892;2022-12-29T16:33:48;10.80;99.90
49238;DHT22;35069;47.906;1.892;2022-12-29T16:36:51;10.80;99.90
49238;DHT22;35069;47.906;1.892;2022-12-29T16:39:33;10.70;99.90
49238;DHT22;35069;47.906;1.892;2022-12-29T16:42:00;10.70;99.90
49238;DHT22;35069;47.906;1.892;2022-12-29T16:44:30;10.70;99.90
49238;DHT22;35069;47.906;1.892;2022-12-29T16:49:29;10.60;99.90
49238;DHT22;35069;47.906;1.892;2022-12-29T16:51:55;10.60;99.90
49238;DHT22;35069;47.906;1.892;2022-12-29T16:54:24;10.50;99.90
49238;DHT22;35069;47.906;1.892;2022-12-29T16:56:50;10.50;99.90
49238;DHT22;35069;47.906;1.892;2022-12-29T16:59:36;10.50;99.90
49238;DHT22;35069;47.906;1.892;2022-12-29T17:02:12;10.50;99.90
49238;DHT22;35069;47.906;1.892;2022-12-29T17:04:39;10.40;99.90
49238;DHT22;35069;47.906;1.892;2022-12-29T17:07:22;10.50;99.90
49238;DHT22;35069;47.906;1.892;2022-12-29T17:09:48;10.50;99.90
49238;DHT22;35069;47.906;1.892;2022-12-29T17:12:26;10.60;99.90
49238;DHT22;35069;47.906;1.892;2022-12-29T17:14:55;10.60;99.90
49238;DHT22;35069;47.906;1.892;2022-12-29T17:19:59;10.70;99.90
49238;DHT22;35069;47.906;1.892;2022-12-29T17:22:26;10.60;99.90
49238;DHT22;35069;47.906;1.892;2022-12-29T17:24:54;10.60;99.90
49238;DHT22;35069;47.906;1.892;2022-12-29T17:27:33;10.60;99.90
49238;DHT22;35069;47.906;1.892;2022-12-29T17:30:30;10.60;99.90
49238;DHT22;35069;47.906;1.892;2022-12-29T17:33:11;10.50;99.90
49238;DHT22;35069;47.906;1.892;2022-12-29T17:35:37;10.50;99.90
49238;DHT22;35069;47.906;1.892;2022-12-29T17:38:19;10.50;99.90
49238;DHT22;35069;47.906;1.892;2022-12-29T17:40:46;10.50;99.90
49238;DHT22;35069;47.906;1.892;2022-12-29T17:43:13;10.50;99.90
49238;DHT22;35069;47.906;1.892;2022-12-29T17:45:40;10.50;99.90
49238;DHT22;35069;47.906;1.892;2022-12-29T17:48:15;10.50;99.90
49238;DHT22;35069;47.906;1.892;2022-12-29T17:50:41;10.50;99.90
49238;DHT22;35069;47.906;1.892;2022-12-29T17:53:12;10.60;99.90
49238;DHT22;35069;47.906;1.892;2022-12-29T17:55:39;10.60;99.90
49238;DHT22;35069;47.906;1.892;2022-12-29T18:00:41;10.60;99.90
49238;DHT22;35069;47.906;1.892;2022-12-29T18:03:10;10.60;99.90
49238;DHT22;35069;47.906;1.892;2022-12-29T18:05:38;10.60;99.90
49238;DHT22;35069;47.906;1.892;2022-12-29T18:08:04;10.70;99.90
49238;DHT22;35069;47.906;1.892;2022-12-29T18:10:30;10.70;99.90
49238;DHT22;35069;47.906;1.892;2022-12-29T18:12:59;10.60;99.90